Esrange, Sweden

7:12 AM CEST on October 22, 2014 (GMT +0200)
Kiruna | Change Station
CLOSE
Current Station
Airport
Location: Kiruna,
Elevation: 1483 ft
Nearby Weather Stations

Elev 1483 ft 67.82 °N, 20.34 °E | Updated 22 minutes ago

Light Snow
Light Snow
21 °F
Feels Like 8 °F
N
14
Wind Variable Wind from SSE

Today
High -- | Low -- °F
--% Chance of Precip.
Yesterday
High -- | Low -- °F
Precip. -- in
8:04 AM 4:34 PM
Waning Crescent, 3% visible
Pressure 30.09 in
Visibility 6.2 miles
Clouds Scattered Clouds 1300 ft
Overcast 2200 ft
Windchill 8 °F
Dew Point 18 °F
Humidity 86%
Rainfall 0.00 in
Snow Depth Not available.
UV 0 out of 12
Pollen Not available.
Air Quality Not available.
Flu Activity Not available.
METAR ESNQ 220450Z 16012KT 9999 -SN SCT013 OVC022 M06/M08 Q1019

More Conditions Fewer Conditions

Pressure 30.09 in
Visibility 6.2 miles
Clouds Scattered Clouds 1300 ft
Overcast 2200 ft
Windchill 8 °F
Dew Point 18 °F
Humidity 86%
Rainfall 0.00 in
Snow Depth Not available.
UV 0 out of 12
Pollen Not available.
Air Quality Not available.
Flu Activity Not available.
METAR ESNQ 220450Z 16012KT 9999 -SN SCT013 OVC022 M06/M08 Q1019

More Conditions Fewer Conditions

10-Day Weather Forecast

Almanac

Astronomy

Oct. 22, 2014 Rise Set
Actual Time 8:04 AM CEST 4:34 PM CEST
Civil Twilight 7:05 AM CEST 5:33 PM CEST
Nautical Twilight 6:00 AM CEST 6:37 PM CEST
Astronomical Twilight 4:56 AM CEST 7:41 PM CEST
Moon 5:46 AM CEST 4:22 PM CEST
Length of Visible Light 10h 27m
Length of Day
8h 29m
Tomorrow will be 8m 3s shorter.
Waning Crescent, 3% of the Moon is Illuminated
Today
Waning Crescent
Oct 23
New
Oct 30
First Quarter
Nov 6
Full
Nov 14
Last Quarter

Yesterday's Extremes

Country Highs Country Lows

Community

WunderPhotos

Upload Photos

1,763,884 photos uploaded!

Nearby

Snow Depth

Not available.

Earthquake Activity

City Distance Mag. Time & Date
No recent earthquake activity has been reported nearby.
Minimum magnitude displayed is 2.5.

Coastal Water Temperatures

Place Temperature
No Stations Reporting

Nearby Weather Stations